sensor_id;sensor_type;location;lat;lon;timestamp;temperature;humidity
22795;DHT22;11564;50.920;11.612;2023-04-21T00:00:23;4.80;99.90
22795;DHT22;11564;50.920;11.612;2023-04-21T00:02:48;5.00;99.90
22795;DHT22;11564;50.920;11.612;2023-04-21T00:05:14;5.20;99.90
22795;DHT22;11564;50.920;11.612;2023-04-21T00:07:40;5.30;99.90
22795;DHT22;11564;50.920;11.612;2023-04-21T00:10:10;5.40;99.90
22795;DHT22;11564;50.920;11.612;2023-04-21T00:12:36;5.50;99.90
22795;DHT22;11564;50.920;11.612;2023-04-21T00:15:03;5.60;99.90
22795;DHT22;11564;50.920;11.612;2023-04-21T00:17:28;5.60;99.90
22795;DHT22;11564;50.920;11.612;2023-04-21T00:19:54;5.70;99.90
22795;DHT22;11564;50.920;11.612;2023-04-21T00:22:20;5.70;99.90
22795;DHT22;11564;50.920;11.612;2023-04-21T00:24:46;5.60;99.90
22795;DHT22;11564;50.920;11.612;2023-04-21T00:27:12;5.60;99.90
22795;DHT22;11564;50.920;11.612;2023-04-21T00:29:39;5.50;99.90
22795;DHT22;11564;50.920;11.612;2023-04-21T00:32:06;5.50;99.90
22795;DHT22;11564;50.920;11.612;2023-04-21T00:34:35;5.50;99.90
22795;DHT22;11564;50.920;11.612;2023-04-21T00:37:01;5.50;99.90
22795;DHT22;11564;50.920;11.612;2023-04-21T00:39:27;5.40;99.90
22795;DHT22;11564;50.920;11.612;2023-04-21T00:41:52;5.50;99.90
22795;DHT22;11564;50.920;11.612;2023-04-21T00:44:18;5.50;99.90
22795;DHT22;11564;50.920;11.612;2023-04-21T00:46:43;5.40;99.90
22795;DHT22;11564;50.920;11.612;2023-04-21T00:49:09;5.40;99.90
22795;DHT22;11564;50.920;11.612;2023-04-21T00:51:36;5.30;99.90
22795;DHT22;11564;50.920;11.612;2023-04-21T00:54:03;5.30;99.90
22795;DHT22;11564;50.920;11.612;2023-04-21T00:56:31;5.20;99.90
22795;DHT22;11564;50.920;11.612;2023-04-21T00:58:58;5.20;99.90
22795;DHT22;11564;50.920;11.612;2023-04-21T01:01:25;5.20;99.90
22795;DHT22;11564;50.920;11.612;2023-04-21T01:03:56;5.20;99.90
22795;DHT22;11564;50.920;11.612;2023-04-21T01:06:21;5.30;99.90
22795;DHT22;11564;50.920;11.612;2023-04-21T01:08:47;5.30;99.90
22795;DHT22;11564;50.920;11.612;2023-04-21T01:11:13;5.30;99.90
22795;DHT22;11564;50.920;11.612;2023-04-21T01:13:40;5.30;99.90
22795;DHT22;11564;50.920;11.612;2023-04-21T01:16:06;5.30;99.90
22795;DHT22;11564;50.920;11.612;2023-04-21T01:18:35;5.20;99.90
22795;DHT22;11564;50.920;11.612;2023-04-21T01:21:02;5.20;99.90
22795;DHT22;11564;50.920;11.612;2023-04-21T01:23:28;5.20;99.90
22795;DHT22;11564;50.920;11.612;2023-04-21T01:25:54;5.10;99.90
22795;DHT22;11564;50.920;11.612;2023-04-21T01:28:24;5.00;99.90
22795;DHT22;11564;50.920;11.612;2023-04-21T01:30:50;4.80;99.90
22795;DHT22;11564;50.920;11.612;2023-04-21T01:33:16;4.80;99.90
22795;DHT22;11564;50.920;11.612;2023-04-21T01:35:42;4.70;99.90
22795;DHT22;11564;50.920;11.612;2023-04-21T01:38:08;4.80;99.90
22795;DHT22;11564;50.920;11.612;2023-04-21T01:40:34;4.80;99.90
22795;DHT22;11564;50.920;11.612;2023-04-21T01:43:00;4.80;99.90
22795;DHT22;11564;50.920;11.612;2023-04-21T01:45:26;4.70;99.90
22795;DHT22;11564;50.920;11.612;2023-04-21T01:47:51;4.70;99.90
22795;DHT22;11564;50.920;11.612;2023-04-21T01:50:17;4.50;99.90
22795;DHT22;11564;50.920;11.612;2023-04-21T01:52:43;4.50;99.90
22795;DHT22;11564;50.920;11.612;2023-04-21T01:55:08;4.40;99.90
22795;DHT22;11564;50.920;11.612;2023-04-21T01:57:34;4.40;99.90
22795;DHT22;11564;50.920;11.612;2023-04-21T02:00:01;4.30;99.90
22795;DHT22;11564;50.920;11.612;2023-04-21T02:02:26;4.20;99.90
22795;DHT22;11564;50.920;11.612;2023-04-21T02:04:52;4.20;99.90
22795;DHT22;11564;50.920;11.612;2023-04-21T02:07:17;4.10;99.90
22795;DHT22;11564;50.920;11.612;2023-04-21T02:09:43;4.10;99.90
22795;DHT22;11564;50.920;11.612;2023-04-21T02:12:08;4.00;99.90
22795;DHT22;11564;50.920;11.612;2023-04-21T02:14:36;3.90;99.90
22795;DHT22;11564;50.920;11.612;2023-04-21T02:17:02;3.90;99.90
22795;DHT22;11564;50.920;11.612;2023-04-21T02:19:28;3.90;99.90
22795;DHT22;11564;50.920;11.612;2023-04-21T02:21:54;3.80;99.90
22795;DHT22;11564;50.920;11.612;2023-04-21T02:24:20;3.80;99.90
22795;DHT22;11564;50.920;11.612;2023-04-21T02:26:45;3.80;99.90
22795;DHT22;11564;50.920;11.612;2023-04-21T02:29:11;3.70;99.90
22795;DHT22;11564;50.920;11.612;2023-04-21T02:31:37;3.80;99.90
22795;DHT22;11564;50.920;11.612;2023-04-21T02:34:03;3.80;99.90
22795;DHT22;11564;50.920;11.612;2023-04-21T02:36:28;3.80;99.90
22795;DHT22;11564;50.920;11.612;2023-04-21T02:38:54;3.80;99.90
22795;DHT22;11564;50.920;11.612;2023-04-21T02:41:20;3.70;99.90
22795;DHT22;11564;50.920;11.612;2023-04-21T02:43:45;3.70;99.90
22795;DHT22;11564;50.920;11.612;2023-04-21T02:46:11;3.70;99.90
22795;DHT22;11564;50.920;11.612;2023-04-21T02:48:36;3.80;99.90
22795;DHT22;11564;50.920;11.612;2023-04-21T02:51:02;3.80;99.90
22795;DHT22;11564;50.920;11.612;2023-04-21T02:53:29;3.70;99.90
22795;DHT22;11564;50.920;11.612;2023-04-21T02:55:54;3.70;99.90
22795;DHT22;11564;50.920;11.612;2023-04-21T02:58:20;3.60;99.90
22795;DHT22;11564;50.920;11.612;2023-04-21T03:00:46;3.60;99.90
22795;DHT22;11564;50.920;11.612;2023-04-21T03:03:14;3.60;99.90
22795;DHT22;11564;50.920;11.612;2023-04-21T03:05:39;3.60;99.90
22795;DHT22;11564;50.920;11.612;2023-04-21T03:08:06;3.50;99.90
22795;DHT22;11564;50.920;11.612;2023-04-21T03:10:31;3.50;99.90
22795;DHT22;11564;50.920;11.612;2023-04-21T03:12:57;3.50;99.90
22795;DHT22;11564;50.920;11.612;2023-04-21T03:15:23;3.40;99.90
22795;DHT22;11564;50.920;11.612;2023-04-21T03:17:48;3.40;99.90
22795;DHT22;11564;50.920;11.612;2023-04-21T03:20:14;3.40;99.90
22795;DHT22;11564;50.920;11.612;2023-04-21T03:22:40;3.30;99.90
22795;DHT22;11564;50.920;11.612;2023-04-21T03:25:07;3.30;99.90
22795;DHT22;11564;50.920;11.612;2023-04-21T03:27:33;3.20;99.90
22795;DHT22;11564;50.920;11.612;2023-04-21T03:29:59;3.20;99.90
22795;DHT22;11564;50.920;11.612;2023-04-21T03:32:25;3.10;99.90
22795;DHT22;11564;50.920;11.612;2023-04-21T03:34:50;3.10;99.90
22795;DHT22;11564;50.920;11.612;2023-04-21T03:37:16;3.00;99.90
22795;DHT22;11564;50.920;11.612;2023-04-21T03:39:41;3.00;99.90
22795;DHT22;11564;50.920;11.612;2023-04-21T03:42:07;2.90;99.90
22795;DHT22;11564;50.920;11.612;2023-04-21T03:44:33;2.90;99.90
22795;DHT22;11564;50.920;11.612;2023-04-21T03:46:58;2.90;99.90
22795;DHT22;11564;50.920;11.612;2023-04-21T03:49:24;2.80;99.90
22795;DHT22;11564;50.920;11.612;2023-04-21T03:51:49;2.80;99.90
22795;DHT22;11564;50.920;11.612;2023-04-21T03:54:15;2.80;99.90
22795;DHT22;11564;50.920;11.612;2023-04-21T03:56:41;2.80;99.90
22795;DHT22;11564;50.920;11.612;2023-04-21T03:59:06;2.70;99.90
22795;DHT22;11564;50.920;11.612;2023-04-21T04:01:35;2.70;99.90
22795;DHT22;11564;50.920;11.612;2023-04-21T04:04:01;2.70;99.90
22795;DHT22;11564;50.920;11.612;2023-04-21T04:06:26;2.70;99.90
22795;DHT22;11564;50.920;11.612;2023-04-21T04:08:53;2.70;99.90
22795;DHT22;11564;50.920;11.612;2023-04-21T04:11:18;2.60;99.90
22795;DHT22;11564;50.920;11.612;2023-04-21T04:13:44;2.60;99.90
22795;DHT22;11564;50.920;11.612;2023-04-21T04:16:09;2.60;99.90
22795;DHT22;11564;50.920;11.612;2023-04-21T04:18:35;2.60;99.90
22795;DHT22;11564;50.920;11.612;2023-04-21T04:21:05;2.60;99.90
22795;DHT22;11564;50.920;11.612;2023-04-21T04:23:32;2.60;99.90
22795;DHT22;11564;50.920;11.612;2023-04-21T04:25:58;2.60;99.90
22795;DHT22;11564;50.920;11.612;2023-04-21T04:28:23;2.60;99.90
22795;DHT22;11564;50.920;11.612;2023-04-21T04:30:49;2.70;99.90
22795;DHT22;11564;50.920;11.612;2023-04-21T04:33:15;2.70;99.90
22795;DHT22;11564;50.920;11.612;2023-04-21T04:35:40;2.80;99.90
22795;DHT22;11564;50.920;11.612;2023-04-21T04:38:06;2.80;99.90
22795;DHT22;11564;50.920;11.612;2023-04-21T04:40:32;2.90;99.90
22795;DHT22;11564;50.920;11.612;2023-04-21T04:42:58;3.00;99.90
22795;DHT22;11564;50.920;11.612;2023-04-21T04:45:25;3.00;99.90
22795;DHT22;11564;50.920;11.612;2023-04-21T04:47:52;3.00;99.90
22795;DHT22;11564;50.920;11.612;2023-04-21T04:50:18;3.10;99.90
22795;DHT22;11564;50.920;11.612;2023-04-21T04:52:45;3.00;99.90
22795;DHT22;11564;50.920;11.612;2023-04-21T04:55:12;3.10;99.90
22795;DHT22;11564;50.920;11.612;2023-04-21T04:57:38;3.10;99.90
22795;DHT22;11564;50.920;11.612;2023-04-21T05:00:05;3.20;99.90
22795;DHT22;11564;50.920;11.612;2023-04-21T05:02:33;3.20;99.90
22795;DHT22;11564;50.920;11.612;2023-04-21T05:04:58;3.30;99.90
22795;DHT22;11564;50.920;11.612;2023-04-21T05:07:24;3.30;99.90
22795;DHT22;11564;50.920;11.612;2023-04-21T05:09:50;3.30;99.90
22795;DHT22;11564;50.920;11.612;2023-04-21T05:12:15;3.40;99.90
22795;DHT22;11564;50.920;11.612;2023-04-21T05:14:41;3.50;99.90
22795;DHT22;11564;50.920;11.612;2023-04-21T05:17:06;3.50;99.90
22795;DHT22;11564;50.920;11.612;2023-04-21T05:19:34;3.60;99.90
22795;DHT22;11564;50.920;11.612;2023-04-21T05:22:01;3.70;99.90
22795;DHT22;11564;50.920;11.612;2023-04-21T05:24:26;3.80;99.90
22795;DHT22;11564;50.920;11.612;2023-04-21T05:26:52;3.90;99.90
22795;DHT22;11564;50.920;11.612;2023-04-21T05:29:17;4.00;99.90
22795;DHT22;11564;50.920;11.612;2023-04-21T05:31:43;4.10;99.90
22795;DHT22;11564;50.920;11.612;2023-04-21T05:34:09;4.30;99.90
22795;DHT22;11564;50.920;11.612;2023-04-21T05:36:34;4.40;99.90
22795;DHT22;11564;50.920;11.612;2023-04-21T05:39:00;4.50;99.90
22795;DHT22;11564;50.920;11.612;2023-04-21T05:41:26;4.60;99.90
22795;DHT22;11564;50.920;11.612;2023-04-21T05:43:52;4.80;99.90
22795;DHT22;11564;50.920;11.612;2023-04-21T05:46:18;4.90;99.90
22795;DHT22;11564;50.920;11.612;2023-04-21T05:48:43;5.10;99.90
22795;DHT22;11564;50.920;11.612;2023-04-21T05:51:10;5.20;99.90
22795;DHT22;11564;50.920;11.612;2023-04-21T05:53:39;5.30;99.90
22795;DHT22;11564;50.920;11.612;2023-04-21T05:56:07;5.50;99.90
22795;DHT22;11564;50.920;11.612;2023-04-21T05:58:33;5.60;99.90
22795;DHT22;11564;50.920;11.612;2023-04-21T06:00:58;5.80;99.90
22795;DHT22;11564;50.920;11.612;2023-04-21T06:03:24;5.90;99.90
22795;DHT22;11564;50.920;11.612;2023-04-21T06:05:54;6.00;99.90
22795;DHT22;11564;50.920;11.612;2023-04-21T06:08:20;6.10;99.90
22795;DHT22;11564;50.920;11.612;2023-04-21T06:10:45;6.20;99.90
22795;DHT22;11564;50.920;11.612;2023-04-21T06:13:11;6.30;99.90
22795;DHT22;11564;50.920;11.612;2023-04-21T06:15:37;6.40;99.90
22795;DHT22;11564;50.920;11.612;2023-04-21T06:18:02;6.50;99.90
22795;DHT22;11564;50.920;11.612;2023-04-21T06:20:28;6.60;99.90
22795;DHT22;11564;50.920;11.612;2023-04-21T06:22:53;6.70;99.90
22795;DHT22;11564;50.920;11.612;2023-04-21T06:25:19;6.80;99.90
22795;DHT22;11564;50.920;11.612;2023-04-21T06:27:45;7.00;99.90
22795;DHT22;11564;50.920;11.612;2023-04-21T06:30:11;7.20;99.90
22795;DHT22;11564;50.920;11.612;2023-04-21T06:32:36;7.20;99.90
22795;DHT22;11564;50.920;11.612;2023-04-21T06:35:02;7.30;99.90
22795;DHT22;11564;50.920;11.612;2023-04-21T06:37:28;7.50;99.90
22795;DHT22;11564;50.920;11.612;2023-04-21T06:39:53;7.80;99.90
22795;DHT22;11564;50.920;11.612;2023-04-21T06:42:24;8.10;99.90
22795;DHT22;11564;50.920;11.612;2023-04-21T06:45:10;8.30;99.90
22795;DHT22;11564;50.920;11.612;2023-04-21T06:47:36;8.60;99.90
22795;DHT22;11564;50.920;11.612;2023-04-21T06:50:02;9.00;99.90
22795;DHT22;11564;50.920;11.612;2023-04-21T06:52:28;9.30;99.90
22795;DHT22;11564;50.920;11.612;2023-04-21T06:54:53;9.50;99.90
22795;DHT22;11564;50.920;11.612;2023-04-21T06:57:19;9.80;99.90
22795;DHT22;11564;50.920;11.612;2023-04-21T06:59:44;10.10;99.90
22795;DHT22;11564;50.920;11.612;2023-04-21T07:02:10;10.30;99.90
22795;DHT22;11564;50.920;11.612;2023-04-21T07:04:35;10.50;99.90
22795;DHT22;11564;50.920;11.612;2023-04-21T07:07:01;10.70;99.90
22795;DHT22;11564;50.920;11.612;2023-04-21T07:09:27;10.90;99.90
22795;DHT22;11564;50.920;11.612;2023-04-21T07:11:53;11.10;99.90
22795;DHT22;11564;50.920;11.612;2023-04-21T07:14:20;11.40;99.90
22795;DHT22;11564;50.920;11.612;2023-04-21T07:16:45;11.50;99.90
22795;DHT22;11564;50.920;11.612;2023-04-21T07:19:11;11.70;99.90
22795;DHT22;11564;50.920;11.612;2023-04-21T07:21:36;11.90;99.90
22795;DHT22;11564;50.920;11.612;2023-04-21T07:24:02;12.10;99.90
22795;DHT22;11564;50.920;11.612;2023-04-21T07:26:28;12.20;99.90
22795;DHT22;11564;50.920;11.612;2023-04-21T07:28:54;12.40;99.90
22795;DHT22;11564;50.920;11.612;2023-04-21T07:31:23;12.50;99.90
22795;DHT22;11564;50.920;11.612;2023-04-21T07:33:49;12.70;99.90
22795;DHT22;11564;50.920;11.612;2023-04-21T07:36:15;12.90;99.90
22795;DHT22;11564;50.920;11.612;2023-04-21T07:38:41;12.90;99.90
22795;DHT22;11564;50.920;11.612;2023-04-21T07:41:09;13.20;99.90
22795;DHT22;11564;50.920;11.612;2023-04-21T07:43:35;13.40;99.90
22795;DHT22;11564;50.920;11.612;2023-04-21T07:46:01;13.60;99.90
22795;DHT22;11564;50.920;11.612;2023-04-21T07:48:26;13.70;99.90
22795;DHT22;11564;50.920;11.612;2023-04-21T07:50:52;13.90;99.90
22795;DHT22;11564;50.920;11.612;2023-04-21T07:53:18;13.90;99.90
22795;DHT22;11564;50.920;11.612;2023-04-21T07:55:43;14.10;99.90
22795;DHT22;11564;50.920;11.612;2023-04-21T07:58:09;14.20;99.90
22795;DHT22;11564;50.920;11.612;2023-04-21T08:00:35;14.30;99.90
22795;DHT22;11564;50.920;11.612;2023-04-21T08:03:01;14.50;99.90
22795;DHT22;11564;50.920;11.612;2023-04-21T08:05:26;14.60;99.90
22795;DHT22;11564;50.920;11.612;2023-04-21T08:07:53;14.70;99.90
22795;DHT22;11564;50.920;11.612;2023-04-21T08:10:19;14.80;99.90
22795;DHT22;11564;50.920;11.612;2023-04-21T08:12:44;14.90;99.90
22795;DHT22;11564;50.920;11.612;2023-04-21T08:15:10;14.90;99.90
22795;DHT22;11564;50.920;11.612;2023-04-21T08:17:37;14.80;99.90
22795;DHT22;11564;50.920;11.612;2023-04-21T08:20:03;15.00;99.90
22795;DHT22;11564;50.920;11.612;2023-04-21T08:22:29;15.10;99.90
22795;DHT22;11564;50.920;11.612;2023-04-21T08:24:54;15.30;99.90
22795;DHT22;11564;50.920;11.612;2023-04-21T08:27:20;15.40;99.90
22795;DHT22;11564;50.920;11.612;2023-04-21T08:29:46;15.50;99.90
22795;DHT22;11564;50.920;11.612;2023-04-21T08:32:12;15.70;99.90
22795;DHT22;11564;50.920;11.612;2023-04-21T08:34:37;15.80;99.90
22795;DHT22;11564;50.920;11.612;2023-04-21T08:37:03;16.00;99.90
22795;DHT22;11564;50.920;11.612;2023-04-21T08:39:29;16.00;99.90
22795;DHT22;11564;50.920;11.612;2023-04-21T08:41:55;16.00;99.90
22795;DHT22;11564;50.920;11.612;2023-04-21T08:44:22;16.20;99.90
22795;DHT22;11564;50.920;11.612;2023-04-21T08:46:48;16.20;99.90
22795;DHT22;11564;50.920;11.612;2023-04-21T08:49:18;16.50;99.90
22795;DHT22;11564;50.920;11.612;2023-04-21T08:51:45;16.60;99.90
22795;DHT22;11564;50.920;11.612;2023-04-21T08:54:11;16.60;99.90
22795;DHT22;11564;50.920;11.612;2023-04-21T08:56:38;16.80;99.90
22795;DHT22;11564;50.920;11.612;2023-04-21T08:59:04;16.80;99.90
22795;DHT22;11564;50.920;11.612;2023-04-21T09:01:30;17.00;99.90
22795;DHT22;11564;50.920;11.612;2023-04-21T09:04:15;17.00;99.90
22795;DHT22;11564;50.920;11.612;2023-04-21T09:06:41;17.20;99.90
22795;DHT22;11564;50.920;11.612;2023-04-21T09:09:10;17.20;99.90
22795;DHT22;11564;50.920;11.612;2023-04-21T09:11:36;17.40;99.90
22795;DHT22;11564;50.920;11.612;2023-04-21T09:14:02;17.40;99.90
22795;DHT22;11564;50.920;11.612;2023-04-21T09:16:30;17.50;99.90
22795;DHT22;11564;50.920;11.612;2023-04-21T09:18:59;17.50;99.90
22795;DHT22;11564;50.920;11.612;2023-04-21T09:21:28;17.50;99.90
22795;DHT22;11564;50.920;11.612;2023-04-21T09:23:54;17.60;99.90
22795;DHT22;11564;50.920;11.612;2023-04-21T09:26:21;17.60;99.90
22795;DHT22;11564;50.920;11.612;2023-04-21T09:28:51;17.70;99.90
22795;DHT22;11564;50.920;11.612;2023-04-21T09:31:19;17.90;99.90
22795;DHT22;11564;50.920;11.612;2023-04-21T09:33:56;18.10;99.90
22795;DHT22;11564;50.920;11.612;2023-04-21T09:36:24;18.20;99.90
22795;DHT22;11564;50.920;11.612;2023-04-21T09:41:19;17.90;99.90
22795;DHT22;11564;50.920;11.612;2023-04-21T09:43:45;18.20;99.90
22795;DHT22;11564;50.920;11.612;2023-04-21T09:46:11;18.50;99.90
22795;DHT22;11564;50.920;11.612;2023-04-21T09:48:40;18.70;99.90
22795;DHT22;11564;50.920;11.612;2023-04-21T09:51:07;19.10;99.90
22795;DHT22;11564;50.920;11.612;2023-04-21T09:53:33;19.30;99.90
22795;DHT22;11564;50.920;11.612;2023-04-21T09:56:03;19.30;99.90
22795;DHT22;11564;50.920;11.612;2023-04-21T09:58:34;19.60;99.90
22795;DHT22;11564;50.920;11.612;2023-04-21T10:01:03;20.00;99.90
22795;DHT22;11564;50.920;11.612;2023-04-21T10:03:31;20.00;99.90
22795;DHT22;11564;50.920;11.612;2023-04-21T10:05:56;20.10;99.90
22795;DHT22;11564;50.920;11.612;2023-04-21T10:08:22;20.30;99.90
22795;DHT22;11564;50.920;11.612;2023-04-21T10:10:47;20.10;99.90
22795;DHT22;11564;50.920;11.612;2023-04-21T10:13:14;20.00;99.90
22795;DHT22;11564;50.920;11.612;2023-04-21T10:15:41;20.40;99.90
22795;DHT22;11564;50.920;11.612;2023-04-21T10:18:25;20.50;99.30
22795;DHT22;11564;50.920;11.612;2023-04-21T10:20:54;20.70;99.20
22795;DHT22;11564;50.920;11.612;2023-04-21T10:26:07;20.90;98.60
22795;DHT22;11564;50.920;11.612;2023-04-21T10:39:29;21.60;95.00
22795;DHT22;11564;50.920;11.612;2023-04-21T10:42:16;21.80;95.10
22795;DHT22;11564;50.920;11.612;2023-04-21T10:47:27;22.10;93.60
22795;DHT22;11564;50.920;11.612;2023-04-21T10:49:57;21.90;92.40
22795;DHT22;11564;50.920;11.612;2023-04-21T10:52:31;21.70;91.10
22795;DHT22;11564;50.920;11.612;2023-04-21T10:57:23;21.60;91.60
22795;DHT22;11564;50.920;11.612;2023-04-21T10:59:49;21.90;92.60
22795;DHT22;11564;50.920;11.612;2023-04-21T11:02:17;21.90;91.20
22795;DHT22;11564;50.920;11.612;2023-04-21T11:04:43;21.60;91.20
22795;DHT22;11564;50.920;11.612;2023-04-21T11:07:30;21.60;91.80
22795;DHT22;11564;50.920;11.612;2023-04-21T11:10:00;21.70;90.90
22795;DHT22;11564;50.920;11.612;2023-04-21T11:12:30;21.90;91.60
22795;DHT22;11564;50.920;11.612;2023-04-21T11:14:56;22.20;91.60
22795;DHT22;11564;50.920;11.612;2023-04-21T11:17:22;22.60;90.90
22795;DHT22;11564;50.920;11.612;2023-04-21T11:19:51;22.30;89.70
22795;DHT22;11564;50.920;11.612;2023-04-21T11:22:17;22.00;90.20
22795;DHT22;11564;50.920;11.612;2023-04-21T11:24:45;22.10;90.40
22795;DHT22;11564;50.920;11.612;2023-04-21T11:27:11;22.40;89.40
22795;DHT22;11564;50.920;11.612;2023-04-21T11:29:38;22.30;88.20
22795;DHT22;11564;50.920;11.612;2023-04-21T11:32:08;21.80;88.10
22795;DHT22;11564;50.920;11.612;2023-04-21T11:34:36;21.70;88.40
22795;DHT22;11564;50.920;11.612;2023-04-21T11:37:02;22.00;89.60
22795;DHT22;11564;50.920;11.612;2023-04-21T11:39:28;22.20;89.30
22795;DHT22;11564;50.920;11.612;2023-04-21T11:41:54;21.90;88.90
22795;DHT22;11564;50.920;11.612;2023-04-21T11:46:59;22.10;88.90
22795;DHT22;11564;50.920;11.612;2023-04-21T11:49:25;22.30;89.70
22795;DHT22;11564;50.920;11.612;2023-04-21T11:51:55;22.40;87.10
22795;DHT22;11564;50.920;11.612;2023-04-21T11:54:21;22.30;86.00
22795;DHT22;11564;50.920;11.612;2023-04-21T11:56:49;21.70;84.20
22795;DHT22;11564;50.920;11.612;2023-04-21T11:59:17;21.50;86.40
22795;DHT22;11564;50.920;11.612;2023-04-21T12:01:48;21.50;85.60
22795;DHT22;11564;50.920;11.612;2023-04-21T12:04:14;21.70;86.00
22795;DHT22;11564;50.920;11.612;2023-04-21T12:06:41;22.10;87.80
22795;DHT22;11564;50.920;11.612;2023-04-21T12:09:07;22.50;86.50
22795;DHT22;11564;50.920;11.612;2023-04-21T12:11:33;22.90;83.90
22795;DHT22;11564;50.920;11.612;2023-04-21T12:14:00;23.30;85.90
22795;DHT22;11564;50.920;11.612;2023-04-21T12:16:27;23.30;83.30
22795;DHT22;11564;50.920;11.612;2023-04-21T12:18:55;23.70;83.10
22795;DHT22;11564;50.920;11.612;2023-04-21T12:21:21;23.50;79.20
22795;DHT22;11564;50.920;11.612;2023-04-21T12:23:50;22.90;78.90
22795;DHT22;11564;50.920;11.612;2023-04-21T12:26:16;23.00;78.50
22795;DHT22;11564;50.920;11.612;2023-04-21T12:28:42;23.10;79.90
22795;DHT22;11564;50.920;11.612;2023-04-21T12:31:07;22.80;79.00
22795;DHT22;11564;50.920;11.612;2023-04-21T12:33:33;22.50;78.80
22795;DHT22;11564;50.920;11.612;2023-04-21T12:35:58;22.40;78.70
22795;DHT22;11564;50.920;11.612;2023-04-21T12:38:24;22.20;78.10
22795;DHT22;11564;50.920;11.612;2023-04-21T12:40:50;22.20;77.60
22795;DHT22;11564;50.920;11.612;2023-04-21T12:43:16;22.50;78.50
22795;DHT22;11564;50.920;11.612;2023-04-21T12:45:41;22.70;80.30
22795;DHT22;11564;50.920;11.612;2023-04-21T12:48:07;23.10;79.20
22795;DHT22;11564;50.920;11.612;2023-04-21T12:50:33;23.20;80.60
22795;DHT22;11564;50.920;11.612;2023-04-21T12:52:58;23.20;79.00
22795;DHT22;11564;50.920;11.612;2023-04-21T12:55:24;22.70;77.20
22795;DHT22;11564;50.920;11.612;2023-04-21T12:57:50;22.80;77.20
22795;DHT22;11564;50.920;11.612;2023-04-21T13:00:17;23.10;77.30
22795;DHT22;11564;50.920;11.612;2023-04-21T13:02:42;23.70;76.60
22795;DHT22;11564;50.920;11.612;2023-04-21T13:05:08;25.20;77.70
22795;DHT22;11564;50.920;11.612;2023-04-21T13:07:36;26.20;72.90
22795;DHT22;11564;50.920;11.612;2023-04-21T13:10:03;27.80;69.00
22795;DHT22;11564;50.920;11.612;2023-04-21T13:12:31;29.40;66.40
22795;DHT22;11564;50.920;11.612;2023-04-21T13:14:57;29.10;63.50
22795;DHT22;11564;50.920;11.612;2023-04-21T13:17:22;29.70;62.60
22795;DHT22;11564;50.920;11.612;2023-04-21T13:19:48;30.40;62.10
22795;DHT22;11564;50.920;11.612;2023-04-21T13:22:13;31.50;58.10
22795;DHT22;11564;50.920;11.612;2023-04-21T13:24:39;31.40;58.20
22795;DHT22;11564;50.920;11.612;2023-04-21T13:27:05;32.30;56.10
22795;DHT22;11564;50.920;11.612;2023-04-21T13:29:30;35.50;54.00
22795;DHT22;11564;50.920;11.612;2023-04-21T13:32:03;36.40;49.60
22795;DHT22;11564;50.920;11.612;2023-04-21T13:34:30;37.10;49.00
22795;DHT22;11564;50.920;11.612;2023-04-21T13:36:56;37.80;46.50
22795;DHT22;11564;50.920;11.612;2023-04-21T13:39:22;37.90;46.30
22795;DHT22;11564;50.920;11.612;2023-04-21T13:41:47;38.10;44.70
22795;DHT22;11564;50.920;11.612;2023-04-21T13:44:13;36.10;44.80
22795;DHT22;11564;50.920;11.612;2023-04-21T13:46:39;34.50;45.60
22795;DHT22;11564;50.920;11.612;2023-04-21T13:49:05;36.50;45.40
22795;DHT22;11564;50.920;11.612;2023-04-21T13:51:31;36.60;44.20
22795;DHT22;11564;50.920;11.612;2023-04-21T13:53:57;38.60;42.60
22795;DHT22;11564;50.920;11.612;2023-04-21T13:56:22;40.20;41.40
22795;DHT22;11564;50.920;11.612;2023-04-21T13:58:48;40.70;40.10
22795;DHT22;11564;50.920;11.612;2023-04-21T14:01:14;40.20;40.30
22795;DHT22;11564;50.920;11.612;2023-04-21T14:03:40;40.50;39.50
22795;DHT22;11564;50.920;11.612;2023-04-21T14:06:06;41.20;39.20
22795;DHT22;11564;50.920;11.612;2023-04-21T14:08:31;41.60;39.00
22795;DHT22;11564;50.920;11.612;2023-04-21T14:10:57;41.20;38.50
22795;DHT22;11564;50.920;11.612;2023-04-21T14:13:24;43.00;37.10
22795;DHT22;11564;50.920;11.612;2023-04-21T14:15:53;42.50;36.80
22795;DHT22;11564;50.920;11.612;2023-04-21T14:18:19;42.80;36.50
22795;DHT22;11564;50.920;11.612;2023-04-21T14:20:45;42.60;36.30
22795;DHT22;11564;50.920;11.612;2023-04-21T14:23:11;43.30;35.70
22795;DHT22;11564;50.920;11.612;2023-04-21T14:25:36;43.70;35.00
22795;DHT22;11564;50.920;11.612;2023-04-21T14:28:02;43.10;34.80
22795;DHT22;11564;50.920;11.612;2023-04-21T14:30:32;42.90;35.40
22795;DHT22;11564;50.920;11.612;2023-04-21T14:32:59;43.60;34.30
22795;DHT22;11564;50.920;11.612;2023-04-21T14:35:25;45.40;34.00
22795;DHT22;11564;50.920;11.612;2023-04-21T14:37:50;43.90;33.30
22795;DHT22;11564;50.920;11.612;2023-04-21T14:40:16;44.00;32.80
22795;DHT22;11564;50.920;11.612;2023-04-21T14:42:42;44.60;33.30
22795;DHT22;11564;50.920;11.612;2023-04-21T14:45:08;45.20;32.20
22795;DHT22;11564;50.920;11.612;2023-04-21T14:47:35;44.60;32.60
22795;DHT22;11564;50.920;11.612;2023-04-21T14:50:02;44.00;33.10
22795;DHT22;11564;50.920;11.612;2023-04-21T14:52:28;44.10;32.90
22795;DHT22;11564;50.920;11.612;2023-04-21T14:54:54;44.00;32.70
22795;DHT22;11564;50.920;11.612;2023-04-21T14:57:20;44.20;32.30
22795;DHT22;11564;50.920;11.612;2023-04-21T14:59:47;42.90;32.20
22795;DHT22;11564;50.920;11.612;2023-04-21T15:02:13;43.40;32.70
22795;DHT22;11564;50.920;11.612;2023-04-21T15:04:38;42.90;32.50
22795;DHT22;11564;50.920;11.612;2023-04-21T15:07:04;42.70;32.40
22795;DHT22;11564;50.920;11.612;2023-04-21T15:09:30;42.70;32.70
22795;DHT22;11564;50.920;11.612;2023-04-21T15:11:55;42.70;32.80
22795;DHT22;11564;50.920;11.612;2023-04-21T15:14:21;43.70;32.50
22795;DHT22;11564;50.920;11.612;2023-04-21T15:16:47;42.40;32.70
22795;DHT22;11564;50.920;11.612;2023-04-21T15:19:12;41.40;33.00
22795;DHT22;11564;50.920;11.612;2023-04-21T15:21:38;39.60;34.40
22795;DHT22;11564;50.920;11.612;2023-04-21T15:24:04;37.90;35.00
22795;DHT22;11564;50.920;11.612;2023-04-21T15:26:30;38.40;35.90
22795;DHT22;11564;50.920;11.612;2023-04-21T15:28:56;38.40;35.10
22795;DHT22;11564;50.920;11.612;2023-04-21T15:31:22;39.70;35.60
22795;DHT22;11564;50.920;11.612;2023-04-21T15:33:48;40.50;33.70
22795;DHT22;11564;50.920;11.612;2023-04-21T15:36:13;40.40;34.00
22795;DHT22;11564;50.920;11.612;2023-04-21T15:38:39;40.10;33.90
22795;DHT22;11564;50.920;11.612;2023-04-21T15:41:05;40.00;34.30